sensor_id;sensor_type;location;lat;lon;timestamp;temperature;humidity
22491;DHT22;11412;50.802;4.350;2023-06-14T00:00:40;20.20;99.90
22491;DHT22;11412;50.802;4.350;2023-06-14T00:03:07;20.10;99.90
22491;DHT22;11412;50.802;4.350;2023-06-14T00:05:38;20.10;99.90
22491;DHT22;11412;50.802;4.350;2023-06-14T00:08:07;20.10;99.90
22491;DHT22;11412;50.802;4.350;2023-06-14T00:10:36;20.20;99.90
22491;DHT22;11412;50.802;4.350;2023-06-14T00:13:03;20.10;99.90
22491;DHT22;11412;50.802;4.350;2023-06-14T00:15:30;20.10;99.90
22491;DHT22;11412;50.802;4.350;2023-06-14T00:17:56;20.10;99.90
22491;DHT22;11412;50.802;4.350;2023-06-14T00:20:26;20.00;99.90
22491;DHT22;11412;50.802;4.350;2023-06-14T00:22:52;20.00;99.90
22491;DHT22;11412;50.802;4.350;2023-06-14T00:25:18;20.00;99.90
22491;DHT22;11412;50.802;4.350;2023-06-14T00:27:43;19.90;99.90
22491;DHT22;11412;50.802;4.350;2023-06-14T00:30:09;19.90;99.90
22491;DHT22;11412;50.802;4.350;2023-06-14T00:32:35;19.90;99.90
22491;DHT22;11412;50.802;4.350;2023-06-14T00:35:01;19.90;99.90
22491;DHT22;11412;50.802;4.350;2023-06-14T00:37:27;19.80;99.90
22491;DHT22;11412;50.802;4.350;2023-06-14T00:39:52;19.80;99.90
22491;DHT22;11412;50.802;4.350;2023-06-14T00:42:29;19.70;99.90
22491;DHT22;11412;50.802;4.350;2023-06-14T00:44:54;19.70;99.90
22491;DHT22;11412;50.802;4.350;2023-06-14T00:47:20;19.70;99.90
22491;DHT22;11412;50.802;4.350;2023-06-14T00:49:47;19.60;99.90
22491;DHT22;11412;50.802;4.350;2023-06-14T00:52:17;19.70;99.90
22491;DHT22;11412;50.802;4.350;2023-06-14T00:54:43;19.70;99.90
22491;DHT22;11412;50.802;4.350;2023-06-14T00:57:13;19.70;99.90
22491;DHT22;11412;50.802;4.350;2023-06-14T00:59:43;19.60;99.90
22491;DHT22;11412;50.802;4.350;2023-06-14T01:02:10;19.60;99.90
22491;DHT22;11412;50.802;4.350;2023-06-14T01:04:36;19.50;99.90
22491;DHT22;11412;50.802;4.350;2023-06-14T01:13:01;19.50;99.90
22491;DHT22;11412;50.802;4.350;2023-06-14T01:15:30;19.40;99.90
22491;DHT22;11412;50.802;4.350;2023-06-14T01:17:56;19.40;99.90
22491;DHT22;11412;50.802;4.350;2023-06-14T01:20:29;19.40;99.90
22491;DHT22;11412;50.802;4.350;2023-06-14T01:22:56;19.40;99.90
22491;DHT22;11412;50.802;4.350;2023-06-14T01:25:22;19.40;99.90
22491;DHT22;11412;50.802;4.350;2023-06-14T01:27:53;19.40;99.90
22491;DHT22;11412;50.802;4.350;2023-06-14T01:30:23;19.40;99.90
22491;DHT22;11412;50.802;4.350;2023-06-14T01:32:51;19.50;99.90
22491;DHT22;11412;50.802;4.350;2023-06-14T01:35:18;19.50;99.90
22491;DHT22;11412;50.802;4.350;2023-06-14T01:37:44;19.50;99.90
22491;DHT22;11412;50.802;4.350;2023-06-14T01:40:12;19.40;99.90
22491;DHT22;11412;50.802;4.350;2023-06-14T01:42:38;19.40;99.90
22491;DHT22;11412;50.802;4.350;2023-06-14T01:45:05;19.30;99.90
22491;DHT22;11412;50.802;4.350;2023-06-14T01:47:32;19.30;99.90
22491;DHT22;11412;50.802;4.350;2023-06-14T01:49:58;19.30;99.90
22491;DHT22;11412;50.802;4.350;2023-06-14T01:52:24;19.40;99.90
22491;DHT22;11412;50.802;4.350;2023-06-14T01:54:50;19.40;99.90
22491;DHT22;11412;50.802;4.350;2023-06-14T01:57:16;19.30;99.90
22491;DHT22;11412;50.802;4.350;2023-06-14T01:59:42;19.40;99.90
22491;DHT22;11412;50.802;4.350;2023-06-14T02:02:08;19.40;99.90
22491;DHT22;11412;50.802;4.350;2023-06-14T02:04:33;19.50;99.90
22491;DHT22;11412;50.802;4.350;2023-06-14T02:06:59;19.50;99.90
22491;DHT22;11412;50.802;4.350;2023-06-14T02:09:25;19.50;99.90
22491;DHT22;11412;50.802;4.350;2023-06-14T02:11:51;19.50;99.90
22491;DHT22;11412;50.802;4.350;2023-06-14T02:14:17;19.40;99.90
22491;DHT22;11412;50.802;4.350;2023-06-14T02:16:43;19.40;99.90
22491;DHT22;11412;50.802;4.350;2023-06-14T02:19:17;19.40;99.90
22491;DHT22;11412;50.802;4.350;2023-06-14T02:21:44;19.70;99.90
22491;DHT22;11412;50.802;4.350;2023-06-14T02:24:10;19.60;99.90
22491;DHT22;11412;50.802;4.350;2023-06-14T02:26:35;19.50;99.90
22491;DHT22;11412;50.802;4.350;2023-06-14T02:29:03;19.60;99.90
22491;DHT22;11412;50.802;4.350;2023-06-14T02:31:34;19.40;99.90
22491;DHT22;11412;50.802;4.350;2023-06-14T02:34:00;19.50;99.90
22491;DHT22;11412;50.802;4.350;2023-06-14T02:36:26;19.50;99.90
22491;DHT22;11412;50.802;4.350;2023-06-14T02:38:52;19.50;99.90
22491;DHT22;11412;50.802;4.350;2023-06-14T02:41:19;19.40;99.90
22491;DHT22;11412;50.802;4.350;2023-06-14T02:43:45;19.30;99.90
22491;DHT22;11412;50.802;4.350;2023-06-14T02:46:10;19.30;99.90
22491;DHT22;11412;50.802;4.350;2023-06-14T02:48:36;19.50;99.90
22491;DHT22;11412;50.802;4.350;2023-06-14T02:51:02;19.50;99.90
22491;DHT22;11412;50.802;4.350;2023-06-14T02:53:28;19.50;99.90
22491;DHT22;11412;50.802;4.350;2023-06-14T02:55:53;19.70;99.90
22491;DHT22;11412;50.802;4.350;2023-06-14T02:58:21;19.80;99.90
22491;DHT22;11412;50.802;4.350;2023-06-14T03:00:46;19.80;99.90
22491;DHT22;11412;50.802;4.350;2023-06-14T03:03:12;19.80;99.90
22491;DHT22;11412;50.802;4.350;2023-06-14T03:05:45;19.70;99.90
22491;DHT22;11412;50.802;4.350;2023-06-14T03:08:13;19.90;99.90
22491;DHT22;11412;50.802;4.350;2023-06-14T03:10:46;20.00;99.90
22491;DHT22;11412;50.802;4.350;2023-06-14T03:13:12;20.00;99.90
22491;DHT22;11412;50.802;4.350;2023-06-14T03:15:38;20.00;99.90
22491;DHT22;11412;50.802;4.350;2023-06-14T03:18:08;19.80;99.90
22491;DHT22;11412;50.802;4.350;2023-06-14T03:20:38;19.80;99.90
22491;DHT22;11412;50.802;4.350;2023-06-14T03:23:05;19.80;99.90
22491;DHT22;11412;50.802;4.350;2023-06-14T03:25:31;19.80;99.90
22491;DHT22;11412;50.802;4.350;2023-06-14T03:27:58;19.90;99.90
22491;DHT22;11412;50.802;4.350;2023-06-14T03:30:24;19.90;99.90
22491;DHT22;11412;50.802;4.350;2023-06-14T03:32:50;19.70;99.90
22491;DHT22;11412;50.802;4.350;2023-06-14T03:35:18;19.80;99.90
22491;DHT22;11412;50.802;4.350;2023-06-14T03:37:45;19.70;99.90
22491;DHT22;11412;50.802;4.350;2023-06-14T03:40:12;19.80;99.90
22491;DHT22;11412;50.802;4.350;2023-06-14T03:42:39;19.80;99.90
22491;DHT22;11412;50.802;4.350;2023-06-14T03:45:06;19.60;99.90
22491;DHT22;11412;50.802;4.350;2023-06-14T03:47:32;19.50;99.90
22491;DHT22;11412;50.802;4.350;2023-06-14T03:49:57;19.60;99.90
22491;DHT22;11412;50.802;4.350;2023-06-14T03:52:23;19.50;99.90
22491;DHT22;11412;50.802;4.350;2023-06-14T03:54:49;19.40;99.90
22491;DHT22;11412;50.802;4.350;2023-06-14T03:57:15;19.40;99.90
22491;DHT22;11412;50.802;4.350;2023-06-14T03:59:41;19.40;99.90
22491;DHT22;11412;50.802;4.350;2023-06-14T04:02:07;19.40;99.90
22491;DHT22;11412;50.802;4.350;2023-06-14T04:04:35;19.40;99.90
22491;DHT22;11412;50.802;4.350;2023-06-14T04:07:01;19.40;99.90
22491;DHT22;11412;50.802;4.350;2023-06-14T04:09:29;19.50;99.90
22491;DHT22;11412;50.802;4.350;2023-06-14T04:11:55;19.50;99.90
22491;DHT22;11412;50.802;4.350;2023-06-14T04:14:22;19.50;99.90
22491;DHT22;11412;50.802;4.350;2023-06-14T04:16:48;19.40;99.90
22491;DHT22;11412;50.802;4.350;2023-06-14T04:19:15;19.40;99.90
22491;DHT22;11412;50.802;4.350;2023-06-14T04:21:41;19.40;99.90
22491;DHT22;11412;50.802;4.350;2023-06-14T04:24:07;19.40;99.90
22491;DHT22;11412;50.802;4.350;2023-06-14T04:26:39;19.30;99.90
22491;DHT22;11412;50.802;4.350;2023-06-14T04:29:05;19.40;99.90
22491;DHT22;11412;50.802;4.350;2023-06-14T04:31:31;19.40;99.90
22491;DHT22;11412;50.802;4.350;2023-06-14T04:33:59;19.30;99.90
22491;DHT22;11412;50.802;4.350;2023-06-14T04:36:25;19.30;99.90
22491;DHT22;11412;50.802;4.350;2023-06-14T04:38:53;19.30;99.90
22491;DHT22;11412;50.802;4.350;2023-06-14T04:41:22;19.30;99.90
22491;DHT22;11412;50.802;4.350;2023-06-14T04:43:49;19.30;99.90
22491;DHT22;11412;50.802;4.350;2023-06-14T04:46:15;19.40;99.90
22491;DHT22;11412;50.802;4.350;2023-06-14T04:48:42;19.40;99.90
22491;DHT22;11412;50.802;4.350;2023-06-14T04:51:08;19.30;99.90
22491;DHT22;11412;50.802;4.350;2023-06-14T04:53:35;19.30;99.90
22491;DHT22;11412;50.802;4.350;2023-06-14T04:56:01;19.30;99.90
22491;DHT22;11412;50.802;4.350;2023-06-14T04:58:27;19.30;99.90
22491;DHT22;11412;50.802;4.350;2023-06-14T05:00:54;19.30;99.90
22491;DHT22;11412;50.802;4.350;2023-06-14T05:03:22;19.30;99.90
22491;DHT22;11412;50.802;4.350;2023-06-14T05:05:49;19.50;99.90
22491;DHT22;11412;50.802;4.350;2023-06-14T05:08:17;19.40;99.90
22491;DHT22;11412;50.802;4.350;2023-06-14T05:10:42;19.30;99.90
22491;DHT22;11412;50.802;4.350;2023-06-14T05:13:08;19.30;99.90
22491;DHT22;11412;50.802;4.350;2023-06-14T05:15:33;19.40;99.90
22491;DHT22;11412;50.802;4.350;2023-06-14T05:17:59;19.50;99.90
22491;DHT22;11412;50.802;4.350;2023-06-14T05:20:25;19.60;99.90
22491;DHT22;11412;50.802;4.350;2023-06-14T05:22:55;19.60;99.90
22491;DHT22;11412;50.802;4.350;2023-06-14T05:25:22;19.70;99.90
22491;DHT22;11412;50.802;4.350;2023-06-14T05:27:48;19.60;99.90
22491;DHT22;11412;50.802;4.350;2023-06-14T05:30:15;19.70;99.90
22491;DHT22;11412;50.802;4.350;2023-06-14T05:32:41;19.80;99.90
22491;DHT22;11412;50.802;4.350;2023-06-14T05:35:07;19.80;99.90
22491;DHT22;11412;50.802;4.350;2023-06-14T05:37:33;19.80;99.90
22491;DHT22;11412;50.802;4.350;2023-06-14T05:39:59;19.90;99.90
22491;DHT22;11412;50.802;4.350;2023-06-14T05:42:24;19.80;99.90
22491;DHT22;11412;50.802;4.350;2023-06-14T05:44:50;19.70;99.90
22491;DHT22;11412;50.802;4.350;2023-06-14T05:47:16;19.90;99.90
22491;DHT22;11412;50.802;4.350;2023-06-14T05:49:41;19.90;99.90
22491;DHT22;11412;50.802;4.350;2023-06-14T05:52:08;19.90;99.90
22491;DHT22;11412;50.802;4.350;2023-06-14T05:54:33;20.20;99.90
22491;DHT22;11412;50.802;4.350;2023-06-14T05:56:59;20.30;99.90
22491;DHT22;11412;50.802;4.350;2023-06-14T05:59:30;20.40;99.90
22491;DHT22;11412;50.802;4.350;2023-06-14T06:01:55;20.20;99.90
22491;DHT22;11412;50.802;4.350;2023-06-14T06:04:22;20.40;99.90
22491;DHT22;11412;50.802;4.350;2023-06-14T06:06:48;20.60;99.90
22491;DHT22;11412;50.802;4.350;2023-06-14T06:09:14;20.80;99.90
22491;DHT22;11412;50.802;4.350;2023-06-14T06:11:40;20.90;99.90
22491;DHT22;11412;50.802;4.350;2023-06-14T06:14:06;20.90;99.90
22491;DHT22;11412;50.802;4.350;2023-06-14T06:16:32;21.00;99.90
22491;DHT22;11412;50.802;4.350;2023-06-14T06:18:59;21.30;99.90
22491;DHT22;11412;50.802;4.350;2023-06-14T06:21:25;21.40;99.90
22491;DHT22;11412;50.802;4.350;2023-06-14T06:23:51;21.40;99.90
22491;DHT22;11412;50.802;4.350;2023-06-14T06:26:16;21.40;99.90
22491;DHT22;11412;50.802;4.350;2023-06-14T06:28:42;21.50;99.90
22491;DHT22;11412;50.802;4.350;2023-06-14T06:31:08;21.70;99.90
22491;DHT22;11412;50.802;4.350;2023-06-14T06:33:33;22.00;99.90
22491;DHT22;11412;50.802;4.350;2023-06-14T06:35:59;21.90;99.90
22491;DHT22;11412;50.802;4.350;2023-06-14T06:38:25;21.90;99.90
22491;DHT22;11412;50.802;4.350;2023-06-14T06:40:50;21.80;99.90
22491;DHT22;11412;50.802;4.350;2023-06-14T06:43:16;22.00;99.90
22491;DHT22;11412;50.802;4.350;2023-06-14T06:45:43;22.20;99.90
22491;DHT22;11412;50.802;4.350;2023-06-14T06:48:08;22.40;99.90
22491;DHT22;11412;50.802;4.350;2023-06-14T06:50:37;22.50;99.90
22491;DHT22;11412;50.802;4.350;2023-06-14T06:53:02;22.70;99.90
22491;DHT22;11412;50.802;4.350;2023-06-14T06:55:28;22.70;99.90
22491;DHT22;11412;50.802;4.350;2023-06-14T06:57:54;22.70;99.90
22491;DHT22;11412;50.802;4.350;2023-06-14T07:00:20;22.90;99.90
22491;DHT22;11412;50.802;4.350;2023-06-14T07:02:47;23.20;99.90
22491;DHT22;11412;50.802;4.350;2023-06-14T07:05:13;23.50;99.90
22491;DHT22;11412;50.802;4.350;2023-06-14T07:07:39;23.60;99.90
22491;DHT22;11412;50.802;4.350;2023-06-14T07:10:05;23.70;99.90
22491;DHT22;11412;50.802;4.350;2023-06-14T07:12:31;23.60;99.90
22491;DHT22;11412;50.802;4.350;2023-06-14T07:14:59;23.50;99.90
22491;DHT22;11412;50.802;4.350;2023-06-14T07:17:25;23.60;99.90
22491;DHT22;11412;50.802;4.350;2023-06-14T07:19:51;23.80;99.90
22491;DHT22;11412;50.802;4.350;2023-06-14T07:22:17;23.90;99.90
22491;DHT22;11412;50.802;4.350;2023-06-14T07:24:43;24.10;99.90
22491;DHT22;11412;50.802;4.350;2023-06-14T07:27:09;24.30;99.90
22491;DHT22;11412;50.802;4.350;2023-06-14T07:29:35;24.10;99.90
22491;DHT22;11412;50.802;4.350;2023-06-14T07:32:00;24.40;99.90
22491;DHT22;11412;50.802;4.350;2023-06-14T07:34:26;24.50;99.90
22491;DHT22;11412;50.802;4.350;2023-06-14T07:36:52;24.80;99.90
22491;DHT22;11412;50.802;4.350;2023-06-14T07:39:19;24.80;99.90
22491;DHT22;11412;50.802;4.350;2023-06-14T07:41:45;24.80;99.90
22491;DHT22;11412;50.802;4.350;2023-06-14T07:44:11;24.80;99.90
22491;DHT22;11412;50.802;4.350;2023-06-14T07:46:38;25.10;99.90
22491;DHT22;11412;50.802;4.350;2023-06-14T07:49:04;25.20;99.90
22491;DHT22;11412;50.802;4.350;2023-06-14T07:51:30;25.40;99.90
22491;DHT22;11412;50.802;4.350;2023-06-14T07:53:56;25.40;99.90
22491;DHT22;11412;50.802;4.350;2023-06-14T07:56:22;25.30;99.90
22491;DHT22;11412;50.802;4.350;2023-06-14T07:58:48;25.60;99.90
22491;DHT22;11412;50.802;4.350;2023-06-14T08:01:14;25.60;99.90
22491;DHT22;11412;50.802;4.350;2023-06-14T08:03:40;26.00;99.90
22491;DHT22;11412;50.802;4.350;2023-06-14T08:06:06;25.80;99.90
22491;DHT22;11412;50.802;4.350;2023-06-14T08:08:33;26.00;99.90
22491;DHT22;11412;50.802;4.350;2023-06-14T08:10:58;26.10;99.90
22491;DHT22;11412;50.802;4.350;2023-06-14T08:13:24;26.30;99.90
22491;DHT22;11412;50.802;4.350;2023-06-14T08:15:50;26.60;99.70
22491;DHT22;11412;50.802;4.350;2023-06-14T08:18:16;26.70;99.40
22491;DHT22;11412;50.802;4.350;2023-06-14T08:20:42;26.80;99.90
22491;DHT22;11412;50.802;4.350;2023-06-14T08:23:07;26.90;98.40
22491;DHT22;11412;50.802;4.350;2023-06-14T08:25:34;27.10;99.30
22491;DHT22;11412;50.802;4.350;2023-06-14T08:28:00;27.20;99.90
22491;DHT22;11412;50.802;4.350;2023-06-14T08:30:26;27.40;99.60
22491;DHT22;11412;50.802;4.350;2023-06-14T08:32:52;27.50;98.30
22491;DHT22;11412;50.802;4.350;2023-06-14T08:35:21;27.50;96.80
22491;DHT22;11412;50.802;4.350;2023-06-14T08:37:47;27.60;98.60
22491;DHT22;11412;50.802;4.350;2023-06-14T08:40:21;27.70;98.10
22491;DHT22;11412;50.802;4.350;2023-06-14T08:42:54;27.90;96.50
22491;DHT22;11412;50.802;4.350;2023-06-14T08:45:24;27.80;96.40
22491;DHT22;11412;50.802;4.350;2023-06-14T08:47:50;27.70;95.90
22491;DHT22;11412;50.802;4.350;2023-06-14T08:50:21;28.00;96.00
22491;DHT22;11412;50.802;4.350;2023-06-14T08:52:53;28.10;95.50
22491;DHT22;11412;50.802;4.350;2023-06-14T08:55:19;28.20;96.10
22491;DHT22;11412;50.802;4.350;2023-06-14T08:57:46;28.20;96.20
22491;DHT22;11412;50.802;4.350;2023-06-14T09:00:15;28.20;96.50
22491;DHT22;11412;50.802;4.350;2023-06-14T09:02:41;28.30;97.20
22491;DHT22;11412;50.802;4.350;2023-06-14T09:05:12;28.20;97.10
22491;DHT22;11412;50.802;4.350;2023-06-14T09:07:42;28.40;99.10
22491;DHT22;11412;50.802;4.350;2023-06-14T09:10:11;28.50;97.20
22491;DHT22;11412;50.802;4.350;2023-06-14T09:12:37;28.50;98.10
22491;DHT22;11412;50.802;4.350;2023-06-14T09:15:05;28.50;97.80
22491;DHT22;11412;50.802;4.350;2023-06-14T09:17:38;28.30;96.60
22491;DHT22;11412;50.802;4.350;2023-06-14T09:20:05;28.30;96.50
22491;DHT22;11412;50.802;4.350;2023-06-14T09:22:44;28.40;96.90
22491;DHT22;11412;50.802;4.350;2023-06-14T09:25:10;28.50;96.80
22491;DHT22;11412;50.802;4.350;2023-06-14T09:27:38;28.50;96.00
22491;DHT22;11412;50.802;4.350;2023-06-14T09:30:06;28.60;95.50
22491;DHT22;11412;50.802;4.350;2023-06-14T09:32:38;28.80;96.30
22491;DHT22;11412;50.802;4.350;2023-06-14T09:35:06;28.80;95.90
22491;DHT22;11412;50.802;4.350;2023-06-14T09:37:33;28.90;95.70
22491;DHT22;11412;50.802;4.350;2023-06-14T09:39:59;28.90;96.50
22491;DHT22;11412;50.802;4.350;2023-06-14T09:42:26;28.90;94.60
22491;DHT22;11412;50.802;4.350;2023-06-14T09:44:54;28.60;94.90
22491;DHT22;11412;50.802;4.350;2023-06-14T09:47:21;28.60;96.50
22491;DHT22;11412;50.802;4.350;2023-06-14T09:49:47;28.50;96.30
22491;DHT22;11412;50.802;4.350;2023-06-14T09:52:15;28.80;96.00
22491;DHT22;11412;50.802;4.350;2023-06-14T09:54:42;28.80;95.30
22491;DHT22;11412;50.802;4.350;2023-06-14T09:57:11;29.00;96.40
22491;DHT22;11412;50.802;4.350;2023-06-14T09:59:41;29.20;95.40
22491;DHT22;11412;50.802;4.350;2023-06-14T10:02:14;29.10;93.30
22491;DHT22;11412;50.802;4.350;2023-06-14T10:04:46;29.20;93.30
22491;DHT22;11412;50.802;4.350;2023-06-14T10:07:19;29.30;93.30
22491;DHT22;11412;50.802;4.350;2023-06-14T10:09:46;29.30;93.80
22491;DHT22;11412;50.802;4.350;2023-06-14T10:12:16;29.30;93.70
22491;DHT22;11412;50.802;4.350;2023-06-14T10:14:48;29.50;94.90
22491;DHT22;11412;50.802;4.350;2023-06-14T10:17:22;29.80;93.60
22491;DHT22;11412;50.802;4.350;2023-06-14T10:19:56;30.30;92.70
22491;DHT22;11412;50.802;4.350;2023-06-14T10:22:32;29.80;93.10
22491;DHT22;11412;50.802;4.350;2023-06-14T10:25:00;30.00;92.90
22491;DHT22;11412;50.802;4.350;2023-06-14T10:27:26;29.80;93.10
22491;DHT22;11412;50.802;4.350;2023-06-14T10:32:18;30.00;93.60
22491;DHT22;11412;50.802;4.350;2023-06-14T10:34:44;30.00;92.00
22491;DHT22;11412;50.802;4.350;2023-06-14T10:37:12;30.10;91.60
22491;DHT22;11412;50.802;4.350;2023-06-14T10:39:43;29.90;91.00
22491;DHT22;11412;50.802;4.350;2023-06-14T10:42:11;29.80;92.90
22491;DHT22;11412;50.802;4.350;2023-06-14T10:44:38;30.10;92.10
22491;DHT22;11412;50.802;4.350;2023-06-14T10:49:54;29.90;90.80
22491;DHT22;11412;50.802;4.350;2023-06-14T10:52:26;29.80;90.60
22491;DHT22;11412;50.802;4.350;2023-06-14T10:57:32;29.80;90.90
22491;DHT22;11412;50.802;4.350;2023-06-14T10:59:59;30.10;91.90
22491;DHT22;11412;50.802;4.350;2023-06-14T11:05:08;30.60;90.60
22491;DHT22;11412;50.802;4.350;2023-06-14T11:12:50;30.20;90.00
22491;DHT22;11412;50.802;4.350;2023-06-14T11:15:17;30.20;88.20
22491;DHT22;11412;50.802;4.350;2023-06-14T11:17:52;30.10;89.30
22491;DHT22;11412;50.802;4.350;2023-06-14T11:20:25;30.00;88.20
22491;DHT22;11412;50.802;4.350;2023-06-14T11:22:52;30.00;86.80
22491;DHT22;11412;50.802;4.350;2023-06-14T11:25:17;30.40;85.50
22491;DHT22;11412;50.802;4.350;2023-06-14T11:27:44;30.40;86.30
22491;DHT22;11412;50.802;4.350;2023-06-14T11:30:10;30.30;85.60
22491;DHT22;11412;50.802;4.350;2023-06-14T11:32:37;30.40;84.80
22491;DHT22;11412;50.802;4.350;2023-06-14T11:35:03;30.40;86.10
22491;DHT22;11412;50.802;4.350;2023-06-14T11:37:31;30.60;84.50
22491;DHT22;11412;50.802;4.350;2023-06-14T11:40:01;30.50;85.60
22491;DHT22;11412;50.802;4.350;2023-06-14T11:42:27;30.60;86.50
22491;DHT22;11412;50.802;4.350;2023-06-14T11:44:54;30.70;83.50
22491;DHT22;11412;50.802;4.350;2023-06-14T11:47:20;30.40;84.00
22491;DHT22;11412;50.802;4.350;2023-06-14T11:49:46;30.10;84.50
22491;DHT22;11412;50.802;4.350;2023-06-14T11:52:12;29.80;84.90
22491;DHT22;11412;50.802;4.350;2023-06-14T11:54:38;29.70;85.70
22491;DHT22;11412;50.802;4.350;2023-06-14T11:57:06;30.10;86.00
22491;DHT22;11412;50.802;4.350;2023-06-14T11:59:38;30.40;86.60
22491;DHT22;11412;50.802;4.350;2023-06-14T12:02:05;30.70;85.80
22491;DHT22;11412;50.802;4.350;2023-06-14T12:04:32;30.60;85.90
22491;DHT22;11412;50.802;4.350;2023-06-14T12:07:11;30.50;85.70
22491;DHT22;11412;50.802;4.350;2023-06-14T12:12:23;31.00;82.70
22491;DHT22;11412;50.802;4.350;2023-06-14T12:14:53;31.40;85.80
22491;DHT22;11412;50.802;4.350;2023-06-14T12:17:19;31.00;82.00
22491;DHT22;11412;50.802;4.350;2023-06-14T12:19:46;31.00;82.00
22491;DHT22;11412;50.802;4.350;2023-06-14T12:22:13;30.80;83.60
22491;DHT22;11412;50.802;4.350;2023-06-14T12:24:42;30.60;81.70
22491;DHT22;11412;50.802;4.350;2023-06-14T12:27:09;30.50;82.80
22491;DHT22;11412;50.802;4.350;2023-06-14T12:29:37;30.50;84.10
22491;DHT22;11412;50.802;4.350;2023-06-14T12:32:03;30.60;88.90
22491;DHT22;11412;50.802;4.350;2023-06-14T12:34:28;30.80;85.60
22491;DHT22;11412;50.802;4.350;2023-06-14T12:36:54;31.00;85.60
22491;DHT22;11412;50.802;4.350;2023-06-14T12:39:21;31.10;83.10
22491;DHT22;11412;50.802;4.350;2023-06-14T12:41:47;31.20;85.30
22491;DHT22;11412;50.802;4.350;2023-06-14T12:44:14;31.00;84.00
22491;DHT22;11412;50.802;4.350;2023-06-14T12:46:41;31.10;81.30
22491;DHT22;11412;50.802;4.350;2023-06-14T12:49:11;30.90;81.40
22491;DHT22;11412;50.802;4.350;2023-06-14T12:51:38;30.80;81.60
22491;DHT22;11412;50.802;4.350;2023-06-14T12:54:04;30.90;85.40
22491;DHT22;11412;50.802;4.350;2023-06-14T12:56:30;30.90;80.80
22491;DHT22;11412;50.802;4.350;2023-06-14T12:58:55;30.90;82.40
22491;DHT22;11412;50.802;4.350;2023-06-14T13:01:21;30.70;81.40
22491;DHT22;11412;50.802;4.350;2023-06-14T13:03:47;30.60;78.90
22491;DHT22;11412;50.802;4.350;2023-06-14T13:06:13;30.80;82.20
22491;DHT22;11412;50.802;4.350;2023-06-14T13:08:39;30.90;79.00
22491;DHT22;11412;50.802;4.350;2023-06-14T13:11:05;30.90;80.60
22491;DHT22;11412;50.802;4.350;2023-06-14T13:13:30;30.90;78.70
22491;DHT22;11412;50.802;4.350;2023-06-14T13:15:56;30.40;77.90
22491;DHT22;11412;50.802;4.350;2023-06-14T13:18:22;30.30;79.10
22491;DHT22;11412;50.802;4.350;2023-06-14T13:20:47;29.90;83.50
22491;DHT22;11412;50.802;4.350;2023-06-14T13:23:13;30.20;80.70
22491;DHT22;11412;50.802;4.350;2023-06-14T13:25:39;30.30;77.50
22491;DHT22;11412;50.802;4.350;2023-06-14T13:28:05;30.40;79.30
22491;DHT22;11412;50.802;4.350;2023-06-14T13:30:31;30.20;80.80
22491;DHT22;11412;50.802;4.350;2023-06-14T13:32:57;30.40;81.00
22491;DHT22;11412;50.802;4.350;2023-06-14T13:35:23;30.70;78.90
22491;DHT22;11412;50.802;4.350;2023-06-14T13:37:49;30.50;78.40
22491;DHT22;11412;50.802;4.350;2023-06-14T13:40:15;30.40;79.80
22491;DHT22;11412;50.802;4.350;2023-06-14T13:42:41;30.50;78.80
22491;DHT22;11412;50.802;4.350;2023-06-14T13:45:08;30.40;81.50
22491;DHT22;11412;50.802;4.350;2023-06-14T13:47:34;30.40;79.20
22491;DHT22;11412;50.802;4.350;2023-06-14T13:50:00;30.50;80.00
22491;DHT22;11412;50.802;4.350;2023-06-14T13:52:26;30.70;80.10
22491;DHT22;11412;50.802;4.350;2023-06-14T13:54:52;30.50;80.40
22491;DHT22;11412;50.802;4.350;2023-06-14T13:57:18;30.50;80.20
22491;DHT22;11412;50.802;4.350;2023-06-14T13:59:44;30.60;78.60
22491;DHT22;11412;50.802;4.350;2023-06-14T14:02:12;30.80;76.50
22491;DHT22;11412;50.802;4.350;2023-06-14T14:04:39;30.30;76.40
22491;DHT22;11412;50.802;4.350;2023-06-14T14:07:06;30.20;77.70
22491;DHT22;11412;50.802;4.350;2023-06-14T14:09:32;30.00;77.40
22491;DHT22;11412;50.802;4.350;2023-06-14T14:12:00;29.70;75.00
22491;DHT22;11412;50.802;4.350;2023-06-14T14:14:27;29.90;77.20
22491;DHT22;11412;50.802;4.350;2023-06-14T14:16:52;30.10;76.10
22491;DHT22;11412;50.802;4.350;2023-06-14T14:19:22;30.00;79.30
22491;DHT22;11412;50.802;4.350;2023-06-14T14:21:48;30.20;74.40
22491;DHT22;11412;50.802;4.350;2023-06-14T14:24:14;30.10;76.90
22491;DHT22;11412;50.802;4.350;2023-06-14T14:26:39;30.00;77.40
22491;DHT22;11412;50.802;4.350;2023-06-14T14:29:06;29.90;74.60
22491;DHT22;11412;50.802;4.350;2023-06-14T14:31:32;29.90;78.30
22491;DHT22;11412;50.802;4.350;2023-06-14T14:33:57;29.90;74.20
22491;DHT22;11412;50.802;4.350;2023-06-14T14:36:23;29.60;77.50
22491;DHT22;11412;50.802;4.350;2023-06-14T14:38:49;29.30;75.50
22491;DHT22;11412;50.802;4.350;2023-06-14T14:41:17;29.50;77.80
22491;DHT22;11412;50.802;4.350;2023-06-14T14:43:43;29.80;77.80
22491;DHT22;11412;50.802;4.350;2023-06-14T14:46:08;29.70;74.20
22491;DHT22;11412;50.802;4.350;2023-06-14T14:48:35;29.70;74.10
22491;DHT22;11412;50.802;4.350;2023-06-14T14:51:00;29.70;74.00
22491;DHT22;11412;50.802;4.350;2023-06-14T14:53:26;29.90;73.50
22491;DHT22;11412;50.802;4.350;2023-06-14T14:55:51;29.90;73.40
22491;DHT22;11412;50.802;4.350;2023-06-14T14:58:17;29.80;74.10
22491;DHT22;11412;50.802;4.350;2023-06-14T15:00:44;29.60;73.60
22491;DHT22;11412;50.802;4.350;2023-06-14T15:03:10;29.50;73.30
22491;DHT22;11412;50.802;4.350;2023-06-14T15:05:36;29.60;77.00
22491;DHT22;11412;50.802;4.350;2023-06-14T15:08:05;29.30;75.20
22491;DHT22;11412;50.802;4.350;2023-06-14T15:10:40;29.30;73.80
22491;DHT22;11412;50.802;4.350;2023-06-14T15:13:09;29.30;75.00
22491;DHT22;11412;50.802;4.350;2023-06-14T15:15:36;29.20;73.30
22491;DHT22;11412;50.802;4.350;2023-06-14T15:18:02;29.10;72.60
22491;DHT22;11412;50.802;4.350;2023-06-14T15:20:28;29.10;73.90
22491;DHT22;11412;50.802;4.350;2023-06-14T15:22:54;28.80;73.40
22491;DHT22;11412;50.802;4.350;2023-06-14T15:25:29;28.80;74.10
22491;DHT22;11412;50.802;4.350;2023-06-14T15:27:55;28.80;73.50
22491;DHT22;11412;50.802;4.350;2023-06-14T15:30:21;28.80;72.80
22491;DHT22;11412;50.802;4.350;2023-06-14T15:32:47;28.90;73.50
22491;DHT22;11412;50.802;4.350;2023-06-14T15:35:14;29.10;73.90
22491;DHT22;11412;50.802;4.350;2023-06-14T15:37:40;28.90;74.80
22491;DHT22;11412;50.802;4.350;2023-06-14T15:40:06;28.90;74.20
22491;DHT22;11412;50.802;4.350;2023-06-14T15:42:32;28.70;73.60
22491;DHT22;11412;50.802;4.350;2023-06-14T15:44:57;28.90;75.20
22491;DHT22;11412;50.802;4.350;2023-06-14T15:47:23;28.90;72.00
22491;DHT22;11412;50.802;4.350;2023-06-14T15:49:49;28.80;73.30
22491;DHT22;11412;50.802;4.350;2023-06-14T15:52:15;28.90;73.90